sensor_id;sensor_type;location;lat;lon;timestamp;P1;durP1;ratioP1;P2;durP2;ratioP2
31728;SDS011;18309;43.658;1.312;2023-12-20T00:00:34;20.95;;;11.43;;
31728;SDS011;18309;43.658;1.312;2023-12-20T00:03:02;24.55;;;12.10;;
31728;SDS011;18309;43.658;1.312;2023-12-20T00:05:28;20.92;;;11.05;;
31728;SDS011;18309;43.658;1.312;2023-12-20T00:07:54;20.20;;;10.98;;
31728;SDS011;18309;43.658;1.312;2023-12-20T00:10:20;22.15;;;11.32;;
31728;SDS011;18309;43.658;1.312;2023-12-20T00:12:45;19.42;;;10.80;;
31728;SDS011;18309;43.658;1.312;2023-12-20T00:15:11;19.13;;;9.90;;
31728;SDS011;18309;43.658;1.312;2023-12-20T00:17:36;18.73;;;9.90;;
31728;SDS011;18309;43.658;1.312;2023-12-20T00:20:02;20.98;;;10.70;;
31728;SDS011;18309;43.658;1.312;2023-12-20T00:22:28;18.15;;;10.30;;
31728;SDS011;18309;43.658;1.312;2023-12-20T00:24:54;18.90;;;10.45;;
31728;SDS011;18309;43.658;1.312;2023-12-20T00:27:19;17.38;;;10.05;;
31728;SDS011;18309;43.658;1.312;2023-12-20T00:29:45;18.75;;;10.38;;
31728;SDS011;18309;43.658;1.312;2023-12-20T00:32:14;16.55;;;9.13;;
31728;SDS011;18309;43.658;1.312;2023-12-20T00:34:40;17.95;;;10.30;;
31728;SDS011;18309;43.658;1.312;2023-12-20T00:37:06;18.92;;;8.82;;
31728;SDS011;18309;43.658;1.312;2023-12-20T00:39:31;14.65;;;8.95;;
31728;SDS011;18309;43.658;1.312;2023-12-20T00:41:58;14.70;;;9.00;;
31728;SDS011;18309;43.658;1.312;2023-12-20T00:44:23;24.75;;;9.23;;
31728;SDS011;18309;43.658;1.312;2023-12-20T00:46:49;17.25;;;9.07;;
31728;SDS011;18309;43.658;1.312;2023-12-20T00:49:15;15.02;;;9.70;;
31728;SDS011;18309;43.658;1.312;2023-12-20T00:51:40;20.35;;;9.95;;
31728;SDS011;18309;43.658;1.312;2023-12-20T00:54:06;13.70;;;9.55;;
31728;SDS011;18309;43.658;1.312;2023-12-20T00:56:32;19.00;;;9.23;;
31728;SDS011;18309;43.658;1.312;2023-12-20T00:58:57;16.45;;;8.70;;
31728;SDS011;18309;43.658;1.312;2023-12-20T01:01:23;15.95;;;8.48;;
31728;SDS011;18309;43.658;1.312;2023-12-20T01:03:48;13.13;;;8.68;;
31728;SDS011;18309;43.658;1.312;2023-12-20T01:06:16;19.98;;;8.88;;
31728;SDS011;18309;43.658;1.312;2023-12-20T01:08:42;16.33;;;8.45;;
31728;SDS011;18309;43.658;1.312;2023-12-20T01:11:07;11.98;;;7.88;;
31728;SDS011;18309;43.658;1.312;2023-12-20T01:13:33;14.80;;;8.10;;
31728;SDS011;18309;43.658;1.312;2023-12-20T01:15:59;18.15;;;7.70;;
31728;SDS011;18309;43.658;1.312;2023-12-20T01:18:24;20.48;;;8.25;;
31728;SDS011;18309;43.658;1.312;2023-12-20T01:20:50;15.88;;;8.30;;
31728;SDS011;18309;43.658;1.312;2023-12-20T01:23:16;13.00;;;7.68;;
31728;SDS011;18309;43.658;1.312;2023-12-20T01:25:41;13.93;;;8.45;;
31728;SDS011;18309;43.658;1.312;2023-12-20T01:28:08;13.82;;;7.75;;
31728;SDS011;18309;43.658;1.312;2023-12-20T01:30:33;17.65;;;8.30;;
31728;SDS011;18309;43.658;1.312;2023-12-20T01:33:00;14.63;;;8.02;;
31728;SDS011;18309;43.658;1.312;2023-12-20T01:35:26;11.27;;;7.10;;
31728;SDS011;18309;43.658;1.312;2023-12-20T01:37:52;11.52;;;7.60;;
31728;SDS011;18309;43.658;1.312;2023-12-20T01:40:22;11.60;;;7.18;;
31728;SDS011;18309;43.658;1.312;2023-12-20T01:42:47;12.30;;;6.75;;
31728;SDS011;18309;43.658;1.312;2023-12-20T01:45:23;16.58;;;7.43;;
31728;SDS011;18309;43.658;1.312;2023-12-20T01:47:49;11.43;;;7.55;;
31728;SDS011;18309;43.658;1.312;2023-12-20T01:50:15;10.30;;;7.07;;
31728;SDS011;18309;43.658;1.312;2023-12-20T01:52:41;12.57;;;7.68;;
31728;SDS011;18309;43.658;1.312;2023-12-20T01:55:08;16.55;;;7.43;;
31728;SDS011;18309;43.658;1.312;2023-12-20T01:57:38;14.15;;;7.20;;
31728;SDS011;18309;43.658;1.312;2023-12-20T02:00:06;10.55;;;6.47;;
31728;SDS011;18309;43.658;1.312;2023-12-20T02:02:34;10.65;;;6.55;;
31728;SDS011;18309;43.658;1.312;2023-12-20T02:05:05;8.60;;;6.22;;
31728;SDS011;18309;43.658;1.312;2023-12-20T02:07:31;12.52;;;6.68;;
31728;SDS011;18309;43.658;1.312;2023-12-20T02:09:57;12.98;;;6.80;;
31728;SDS011;18309;43.658;1.312;2023-12-20T02:12:22;10.43;;;6.63;;
31728;SDS011;18309;43.658;1.312;2023-12-20T02:14:48;15.05;;;6.70;;
31728;SDS011;18309;43.658;1.312;2023-12-20T02:17:15;15.93;;;7.15;;
31728;SDS011;18309;43.658;1.312;2023-12-20T02:19:41;14.43;;;6.90;;
31728;SDS011;18309;43.658;1.312;2023-12-20T02:22:11;15.43;;;6.57;;
31728;SDS011;18309;43.658;1.312;2023-12-20T02:24:38;12.13;;;6.88;;
31728;SDS011;18309;43.658;1.312;2023-12-20T02:27:05;12.57;;;7.45;;
31728;SDS011;18309;43.658;1.312;2023-12-20T02:29:35;14.75;;;7.90;;
31728;SDS011;18309;43.658;1.312;2023-12-20T02:32:01;17.17;;;8.15;;
31728;SDS011;18309;43.658;1.312;2023-12-20T02:34:27;14.02;;;8.55;;
31728;SDS011;18309;43.658;1.312;2023-12-20T02:36:53;14.20;;;8.15;;
31728;SDS011;18309;43.658;1.312;2023-12-20T02:39:19;21.65;;;8.85;;
31728;SDS011;18309;43.658;1.312;2023-12-20T02:41:44;12.60;;;8.45;;
31728;SDS011;18309;43.658;1.312;2023-12-20T02:44:10;17.70;;;8.63;;
31728;SDS011;18309;43.658;1.312;2023-12-20T02:46:36;15.23;;;8.13;;
31728;SDS011;18309;43.658;1.312;2023-12-20T02:49:01;16.98;;;7.80;;
31728;SDS011;18309;43.658;1.312;2023-12-20T02:51:27;15.70;;;8.48;;
31728;SDS011;18309;43.658;1.312;2023-12-20T02:53:53;16.55;;;10.00;;
31728;SDS011;18309;43.658;1.312;2023-12-20T02:56:18;16.83;;;9.60;;
31728;SDS011;18309;43.658;1.312;2023-12-20T02:58:44;18.77;;;8.63;;
31728;SDS011;18309;43.658;1.312;2023-12-20T03:01:09;17.13;;;9.30;;
31728;SDS011;18309;43.658;1.312;2023-12-20T03:03:35;19.85;;;9.63;;
31728;SDS011;18309;43.658;1.312;2023-12-20T03:06:01;21.05;;;9.68;;
31728;SDS011;18309;43.658;1.312;2023-12-20T03:08:26;18.08;;;9.20;;
31728;SDS011;18309;43.658;1.312;2023-12-20T03:10:52;17.80;;;10.13;;
31728;SDS011;18309;43.658;1.312;2023-12-20T03:13:18;16.73;;;9.77;;
31728;SDS011;18309;43.658;1.312;2023-12-20T03:15:44;20.50;;;9.18;;
31728;SDS011;18309;43.658;1.312;2023-12-20T03:18:11;22.08;;;9.68;;
31728;SDS011;18309;43.658;1.312;2023-12-20T03:20:36;20.17;;;9.65;;
31728;SDS011;18309;43.658;1.312;2023-12-20T03:23:02;13.45;;;8.52;;
31728;SDS011;18309;43.658;1.312;2023-12-20T03:25:29;18.55;;;9.32;;
31728;SDS011;18309;43.658;1.312;2023-12-20T03:27:54;20.30;;;9.52;;
31728;SDS011;18309;43.658;1.312;2023-12-20T03:30:20;17.75;;;9.70;;
31728;SDS011;18309;43.658;1.312;2023-12-20T03:32:46;17.83;;;9.77;;
31728;SDS011;18309;43.658;1.312;2023-12-20T03:35:12;33.00;;;10.07;;
31728;SDS011;18309;43.658;1.312;2023-12-20T03:37:38;15.65;;;9.50;;
31728;SDS011;18309;43.658;1.312;2023-12-20T03:40:04;19.58;;;10.43;;
31728;SDS011;18309;43.658;1.312;2023-12-20T03:42:30;15.00;;;9.27;;
31728;SDS011;18309;43.658;1.312;2023-12-20T03:44:56;16.88;;;9.82;;
31728;SDS011;18309;43.658;1.312;2023-12-20T03:47:21;16.60;;;9.75;;
31728;SDS011;18309;43.658;1.312;2023-12-20T03:49:47;13.05;;;9.45;;
31728;SDS011;18309;43.658;1.312;2023-12-20T03:52:13;16.80;;;10.00;;
31728;SDS011;18309;43.658;1.312;2023-12-20T03:54:38;16.00;;;10.75;;
31728;SDS011;18309;43.658;1.312;2023-12-20T03:57:06;16.02;;;10.45;;
31728;SDS011;18309;43.658;1.312;2023-12-20T03:59:36;16.67;;;10.75;;
31728;SDS011;18309;43.658;1.312;2023-12-20T04:02:02;16.92;;;10.73;;
31728;SDS011;18309;43.658;1.312;2023-12-20T04:04:28;13.70;;;9.30;;
31728;SDS011;18309;43.658;1.312;2023-12-20T04:06:53;14.63;;;9.95;;
31728;SDS011;18309;43.658;1.312;2023-12-20T04:09:19;14.00;;;8.43;;
31728;SDS011;18309;43.658;1.312;2023-12-20T04:11:45;14.57;;;9.52;;
31728;SDS011;18309;43.658;1.312;2023-12-20T04:14:10;12.57;;;8.48;;
31728;SDS011;18309;43.658;1.312;2023-12-20T04:16:36;13.32;;;8.30;;
31728;SDS011;18309;43.658;1.312;2023-12-20T04:19:02;13.02;;;7.65;;
31728;SDS011;18309;43.658;1.312;2023-12-20T04:21:27;11.13;;;7.45;;
31728;SDS011;18309;43.658;1.312;2023-12-20T04:23:53;9.95;;;6.63;;
31728;SDS011;18309;43.658;1.312;2023-12-20T04:26:19;10.88;;;6.97;;
31728;SDS011;18309;43.658;1.312;2023-12-20T04:28:44;12.48;;;7.57;;
31728;SDS011;18309;43.658;1.312;2023-12-20T04:31:10;11.48;;;6.85;;
31728;SDS011;18309;43.658;1.312;2023-12-20T04:33:35;9.50;;;6.07;;
31728;SDS011;18309;43.658;1.312;2023-12-20T04:36:01;11.77;;;6.85;;
31728;SDS011;18309;43.658;1.312;2023-12-20T04:38:27;11.65;;;7.03;;
31728;SDS011;18309;43.658;1.312;2023-12-20T04:40:52;11.38;;;6.28;;
31728;SDS011;18309;43.658;1.312;2023-12-20T04:43:18;9.88;;;6.40;;
31728;SDS011;18309;43.658;1.312;2023-12-20T04:45:44;9.30;;;6.07;;
31728;SDS011;18309;43.658;1.312;2023-12-20T04:48:09;7.95;;;5.68;;
31728;SDS011;18309;43.658;1.312;2023-12-20T04:50:35;9.57;;;6.88;;
31728;SDS011;18309;43.658;1.312;2023-12-20T04:53:00;10.75;;;6.47;;
31728;SDS011;18309;43.658;1.312;2023-12-20T04:55:26;10.45;;;6.10;;
31728;SDS011;18309;43.658;1.312;2023-12-20T04:57:52;8.48;;;5.70;;
31728;SDS011;18309;43.658;1.312;2023-12-20T05:00:18;9.63;;;5.72;;
31728;SDS011;18309;43.658;1.312;2023-12-20T05:02:43;9.98;;;5.72;;
31728;SDS011;18309;43.658;1.312;2023-12-20T05:05:09;10.18;;;6.18;;
31728;SDS011;18309;43.658;1.312;2023-12-20T05:07:35;9.18;;;6.25;;
31728;SDS011;18309;43.658;1.312;2023-12-20T05:10:01;8.23;;;5.50;;
31728;SDS011;18309;43.658;1.312;2023-12-20T05:12:29;9.18;;;6.05;;
31728;SDS011;18309;43.658;1.312;2023-12-20T05:14:55;10.65;;;5.95;;
31728;SDS011;18309;43.658;1.312;2023-12-20T05:17:20;8.85;;;6.25;;
31728;SDS011;18309;43.658;1.312;2023-12-20T05:19:46;11.20;;;6.35;;
31728;SDS011;18309;43.658;1.312;2023-12-20T05:22:12;13.13;;;6.70;;
31728;SDS011;18309;43.658;1.312;2023-12-20T05:24:38;8.50;;;5.90;;
31728;SDS011;18309;43.658;1.312;2023-12-20T05:27:03;8.40;;;5.78;;
31728;SDS011;18309;43.658;1.312;2023-12-20T05:29:29;9.45;;;5.75;;
31728;SDS011;18309;43.658;1.312;2023-12-20T05:31:55;9.35;;;6.07;;
31728;SDS011;18309;43.658;1.312;2023-12-20T05:34:20;8.02;;;5.60;;
31728;SDS011;18309;43.658;1.312;2023-12-20T05:36:46;9.70;;;5.18;;
31728;SDS011;18309;43.658;1.312;2023-12-20T05:39:12;9.43;;;5.15;;
31728;SDS011;18309;43.658;1.312;2023-12-20T05:41:37;9.25;;;6.03;;
31728;SDS011;18309;43.658;1.312;2023-12-20T05:44:03;9.88;;;5.60;;
31728;SDS011;18309;43.658;1.312;2023-12-20T05:46:29;7.30;;;5.22;;
31728;SDS011;18309;43.658;1.312;2023-12-20T05:48:54;7.45;;;5.00;;
31728;SDS011;18309;43.658;1.312;2023-12-20T05:51:20;8.57;;;5.05;;
31728;SDS011;18309;43.658;1.312;2023-12-20T05:53:46;6.88;;;4.93;;
31728;SDS011;18309;43.658;1.312;2023-12-20T05:56:12;6.70;;;4.75;;
31728;SDS011;18309;43.658;1.312;2023-12-20T05:58:38;8.32;;;5.57;;
31728;SDS011;18309;43.658;1.312;2023-12-20T06:01:05;7.88;;;4.55;;
31728;SDS011;18309;43.658;1.312;2023-12-20T06:03:31;7.88;;;4.43;;
31728;SDS011;18309;43.658;1.312;2023-12-20T06:05:56;6.20;;;4.70;;
31728;SDS011;18309;43.658;1.312;2023-12-20T06:08:22;10.15;;;4.13;;
31728;SDS011;18309;43.658;1.312;2023-12-20T06:10:48;5.57;;;4.10;;
31728;SDS011;18309;43.658;1.312;2023-12-20T06:13:14;5.90;;;3.88;;
31728;SDS011;18309;43.658;1.312;2023-12-20T06:15:40;5.63;;;3.83;;
31728;SDS011;18309;43.658;1.312;2023-12-20T06:18:06;5.63;;;3.40;;
31728;SDS011;18309;43.658;1.312;2023-12-20T06:20:32;5.90;;;3.67;;
31728;SDS011;18309;43.658;1.312;2023-12-20T06:22:58;4.45;;;2.83;;
31728;SDS011;18309;43.658;1.312;2023-12-20T06:25:23;6.57;;;2.72;;
31728;SDS011;18309;43.658;1.312;2023-12-20T06:27:50;4.43;;;2.25;;
31728;SDS011;18309;43.658;1.312;2023-12-20T06:30:15;4.40;;;2.53;;
31728;SDS011;18309;43.658;1.312;2023-12-20T06:32:41;3.53;;;2.20;;
31728;SDS011;18309;43.658;1.312;2023-12-20T06:35:08;5.13;;;1.65;;
31728;SDS011;18309;43.658;1.312;2023-12-20T06:37:34;2.65;;;1.77;;
31728;SDS011;18309;43.658;1.312;2023-12-20T06:40:00;4.07;;;2.00;;
31728;SDS011;18309;43.658;1.312;2023-12-20T06:42:26;4.55;;;1.95;;
31728;SDS011;18309;43.658;1.312;2023-12-20T06:44:52;1.95;;;1.38;;
31728;SDS011;18309;43.658;1.312;2023-12-20T06:47:18;4.07;;;1.40;;
31728;SDS011;18309;43.658;1.312;2023-12-20T06:49:43;4.88;;;1.95;;
31728;SDS011;18309;43.658;1.312;2023-12-20T06:52:09;2.30;;;1.45;;
31728;SDS011;18309;43.658;1.312;2023-12-20T06:54:35;2.78;;;1.55;;
31728;SDS011;18309;43.658;1.312;2023-12-20T06:57:01;2.20;;;1.40;;
31728;SDS011;18309;43.658;1.312;2023-12-20T06:59:28;3.55;;;1.20;;
31728;SDS011;18309;43.658;1.312;2023-12-20T07:01:54;1.95;;;1.30;;
31728;SDS011;18309;43.658;1.312;2023-12-20T07:04:20;3.42;;;1.65;;
31728;SDS011;18309;43.658;1.312;2023-12-20T07:06:49;3.15;;;1.80;;
31728;SDS011;18309;43.658;1.312;2023-12-20T07:09:21;3.78;;;2.20;;
31728;SDS011;18309;43.658;1.312;2023-12-20T07:11:47;3.63;;;1.92;;
31728;SDS011;18309;43.658;1.312;2023-12-20T07:14:13;2.35;;;1.60;;
31728;SDS011;18309;43.658;1.312;2023-12-20T07:16:39;3.67;;;2.15;;
31728;SDS011;18309;43.658;1.312;2023-12-20T07:19:05;3.92;;;2.17;;
31728;SDS011;18309;43.658;1.312;2023-12-20T07:21:31;2.90;;;1.80;;
31728;SDS011;18309;43.658;1.312;2023-12-20T07:23:57;2.75;;;1.83;;
31728;SDS011;18309;43.658;1.312;2023-12-20T07:26:22;2.35;;;1.65;;
31728;SDS011;18309;43.658;1.312;2023-12-20T07:28:48;3.20;;;1.75;;
31728;SDS011;18309;43.658;1.312;2023-12-20T07:31:17;1.60;;;1.27;;
31728;SDS011;18309;43.658;1.312;2023-12-20T07:33:43;2.13;;;1.30;;
31728;SDS011;18309;43.658;1.312;2023-12-20T07:36:10;2.97;;;1.05;;
31728;SDS011;18309;43.658;1.312;2023-12-20T07:38:36;1.33;;;1.02;;
31728;SDS011;18309;43.658;1.312;2023-12-20T07:41:02;1.75;;;1.20;;
31728;SDS011;18309;43.658;1.312;2023-12-20T07:43:28;1.20;;;0.85;;
31728;SDS011;18309;43.658;1.312;2023-12-20T07:45:53;1.95;;;1.10;;
31728;SDS011;18309;43.658;1.312;2023-12-20T07:48:19;1.83;;;1.02;;
31728;SDS011;18309;43.658;1.312;2023-12-20T07:50:45;1.50;;;1.00;;
31728;SDS011;18309;43.658;1.312;2023-12-20T07:53:10;1.52;;;1.13;;
31728;SDS011;18309;43.658;1.312;2023-12-20T07:55:36;2.30;;;0.77;;
31728;SDS011;18309;43.658;1.312;2023-12-20T07:58:02;1.70;;;1.20;;
31728;SDS011;18309;43.658;1.312;2023-12-20T08:00:27;1.92;;;0.90;;
31728;SDS011;18309;43.658;1.312;2023-12-20T08:02:53;2.05;;;0.90;;
31728;SDS011;18309;43.658;1.312;2023-12-20T08:05:18;1.95;;;1.10;;
31728;SDS011;18309;43.658;1.312;2023-12-20T08:07:44;3.15;;;1.23;;
31728;SDS011;18309;43.658;1.312;2023-12-20T08:10:10;1.98;;;1.00;;
31728;SDS011;18309;43.658;1.312;2023-12-20T08:12:36;1.58;;;1.20;;
31728;SDS011;18309;43.658;1.312;2023-12-20T08:15:02;2.38;;;1.50;;
31728;SDS011;18309;43.658;1.312;2023-12-20T08:17:29;2.30;;;1.00;;
31728;SDS011;18309;43.658;1.312;2023-12-20T08:19:54;1.77;;;1.30;;
31728;SDS011;18309;43.658;1.312;2023-12-20T08:22:22;1.80;;;1.40;;
31728;SDS011;18309;43.658;1.312;2023-12-20T08:24:47;3.72;;;1.60;;
31728;SDS011;18309;43.658;1.312;2023-12-20T08:27:13;2.05;;;1.60;;
31728;SDS011;18309;43.658;1.312;2023-12-20T08:29:39;3.63;;;1.67;;
31728;SDS011;18309;43.658;1.312;2023-12-20T08:32:04;4.05;;;1.50;;
31728;SDS011;18309;43.658;1.312;2023-12-20T08:34:30;3.38;;;2.00;;
31728;SDS011;18309;43.658;1.312;2023-12-20T08:36:56;2.83;;;1.52;;
31728;SDS011;18309;43.658;1.312;2023-12-20T08:39:22;2.05;;;1.42;;
31728;SDS011;18309;43.658;1.312;2023-12-20T08:41:47;5.50;;;1.98;;
31728;SDS011;18309;43.658;1.312;2023-12-20T08:44:13;4.47;;;1.90;;
31728;SDS011;18309;43.658;1.312;2023-12-20T08:46:39;2.83;;;2.08;;
31728;SDS011;18309;43.658;1.312;2023-12-20T08:49:04;6.15;;;2.45;;
31728;SDS011;18309;43.658;1.312;2023-12-20T08:51:31;3.72;;;1.95;;
31728;SDS011;18309;43.658;1.312;2023-12-20T08:53:58;3.85;;;2.13;;
31728;SDS011;18309;43.658;1.312;2023-12-20T08:56:26;6.15;;;2.42;;
31728;SDS011;18309;43.658;1.312;2023-12-20T08:58:51;2.92;;;1.85;;
31728;SDS011;18309;43.658;1.312;2023-12-20T09:01:17;3.72;;;1.95;;
31728;SDS011;18309;43.658;1.312;2023-12-20T09:03:44;3.35;;;1.67;;
31728;SDS011;18309;43.658;1.312;2023-12-20T09:06:10;5.15;;;2.05;;
31728;SDS011;18309;43.658;1.312;2023-12-20T09:08:35;4.40;;;2.10;;
31728;SDS011;18309;43.658;1.312;2023-12-20T09:11:01;7.28;;;2.13;;
31728;SDS011;18309;43.658;1.312;2023-12-20T09:13:26;11.18;;;2.15;;
31728;SDS011;18309;43.658;1.312;2023-12-20T09:15:54;4.07;;;1.85;;
31728;SDS011;18309;43.658;1.312;2023-12-20T09:18:20;9.80;;;1.70;;
31728;SDS011;18309;43.658;1.312;2023-12-20T09:20:46;7.32;;;2.03;;
31728;SDS011;18309;43.658;1.312;2023-12-20T09:23:12;3.00;;;1.10;;
31728;SDS011;18309;43.658;1.312;2023-12-20T09:25:37;5.43;;;1.30;;
31728;SDS011;18309;43.658;1.312;2023-12-20T09:28:03;1.95;;;1.08;;
31728;SDS011;18309;43.658;1.312;2023-12-20T09:30:29;13.05;;;1.85;;
31728;SDS011;18309;43.658;1.312;2023-12-20T09:32:55;7.20;;;1.58;;
31728;SDS011;18309;43.658;1.312;2023-12-20T09:35:21;4.22;;;1.50;;
31728;SDS011;18309;43.658;1.312;2023-12-20T09:37:49;5.60;;;1.60;;
31728;SDS011;18309;43.658;1.312;2023-12-20T09:40:17;5.95;;;1.55;;
31728;SDS011;18309;43.658;1.312;2023-12-20T09:43:04;10.05;;;1.73;;
31728;SDS011;18309;43.658;1.312;2023-12-20T09:45:34;8.15;;;1.30;;
31728;SDS011;18309;43.658;1.312;2023-12-20T09:47:59;6.15;;;1.80;;
31728;SDS011;18309;43.658;1.312;2023-12-20T09:50:27;11.30;;;2.28;;
31728;SDS011;18309;43.658;1.312;2023-12-20T09:52:55;3.80;;;1.50;;
31728;SDS011;18309;43.658;1.312;2023-12-20T09:55:24;12.20;;;2.17;;
31728;SDS011;18309;43.658;1.312;2023-12-20T09:57:50;5.88;;;1.38;;
31728;SDS011;18309;43.658;1.312;2023-12-20T10:00:16;7.15;;;2.10;;
31728;SDS011;18309;43.658;1.312;2023-12-20T10:02:50;6.65;;;1.90;;
31728;SDS011;18309;43.658;1.312;2023-12-20T10:05:26;4.28;;;1.60;;
31728;SDS011;18309;43.658;1.312;2023-12-20T10:07:54;4.72;;;1.50;;
31728;SDS011;18309;43.658;1.312;2023-12-20T10:10:20;10.55;;;1.63;;
31728;SDS011;18309;43.658;1.312;2023-12-20T10:13:07;7.57;;;1.45;;
31728;SDS011;18309;43.658;1.312;2023-12-20T10:15:34;5.10;;;1.73;;
31728;SDS011;18309;43.658;1.312;2023-12-20T10:18:03;5.15;;;1.70;;
31728;SDS011;18309;43.658;1.312;2023-12-20T10:20:30;9.40;;;1.23;;
31728;SDS011;18309;43.658;1.312;2023-12-20T10:22:59;4.72;;;1.10;;
31728;SDS011;18309;43.658;1.312;2023-12-20T10:25:26;8.80;;;1.42;;
31728;SDS011;18309;43.658;1.312;2023-12-20T10:30:44;5.82;;;1.20;;
31728;SDS011;18309;43.658;1.312;2023-12-20T10:33:09;6.10;;;1.05;;
31728;SDS011;18309;43.658;1.312;2023-12-20T10:35:36;4.35;;;1.30;;
31728;SDS011;18309;43.658;1.312;2023-12-20T10:38:04;13.25;;;2.15;;
31728;SDS011;18309;43.658;1.312;2023-12-20T10:40:31;8.18;;;1.30;;
31728;SDS011;18309;43.658;1.312;2023-12-20T10:42:59;9.20;;;1.25;;
31728;SDS011;18309;43.658;1.312;2023-12-20T10:45:28;3.00;;;1.00;;
31728;SDS011;18309;43.658;1.312;2023-12-20T10:47:54;8.50;;;1.33;;
31728;SDS011;18309;43.658;1.312;2023-12-20T10:50:20;4.82;;;1.10;;
31728;SDS011;18309;43.658;1.312;2023-12-20T10:52:46;10.70;;;1.45;;
31728;SDS011;18309;43.658;1.312;2023-12-20T10:55:13;7.43;;;1.55;;
31728;SDS011;18309;43.658;1.312;2023-12-20T10:57:39;10.90;;;1.45;;
31728;SDS011;18309;43.658;1.312;2023-12-20T11:00:06;6.00;;;1.30;;
31728;SDS011;18309;43.658;1.312;2023-12-20T11:02:39;6.38;;;1.52;;
31728;SDS011;18309;43.658;1.312;2023-12-20T11:08:06;8.50;;;1.55;;
31728;SDS011;18309;43.658;1.312;2023-12-20T11:13:24;6.40;;;1.30;;
31728;SDS011;18309;43.658;1.312;2023-12-20T11:15:59;7.78;;;1.77;;
31728;SDS011;18309;43.658;1.312;2023-12-20T11:18:28;11.80;;;1.88;;
31728;SDS011;18309;43.658;1.312;2023-12-20T11:20:55;7.50;;;1.25;;
31728;SDS011;18309;43.658;1.312;2023-12-20T11:23:34;10.00;;;1.52;;
31728;SDS011;18309;43.658;1.312;2023-12-20T11:26:00;10.43;;;1.42;;
31728;SDS011;18309;43.658;1.312;2023-12-20T11:28:27;5.53;;;1.33;;
31728;SDS011;18309;43.658;1.312;2023-12-20T11:30:55;10.98;;;1.40;;
31728;SDS011;18309;43.658;1.312;2023-12-20T11:33:44;7.30;;;1.10;;
31728;SDS011;18309;43.658;1.312;2023-12-20T11:36:18;12.55;;;1.55;;
31728;SDS011;18309;43.658;1.312;2023-12-20T11:38:58;4.00;;;1.08;;
31728;SDS011;18309;43.658;1.312;2023-12-20T11:41:25;3.55;;;1.02;;
31728;SDS011;18309;43.658;1.312;2023-12-20T11:43:54;6.50;;;1.08;;
31728;SDS011;18309;43.658;1.312;2023-12-20T11:46:21;12.15;;;1.50;;
31728;SDS011;18309;43.658;1.312;2023-12-20T11:48:47;6.70;;;1.08;;
31728;SDS011;18309;43.658;1.312;2023-12-20T11:51:13;7.50;;;0.85;;
31728;SDS011;18309;43.658;1.312;2023-12-20T11:53:41;4.82;;;1.13;;
31728;SDS011;18309;43.658;1.312;2023-12-20T11:56:09;4.60;;;0.70;;
31728;SDS011;18309;43.658;1.312;2023-12-20T11:58:35;5.53;;;0.60;;
31728;SDS011;18309;43.658;1.312;2023-12-20T12:01:01;6.30;;;0.80;;
31728;SDS011;18309;43.658;1.312;2023-12-20T12:03:29;6.75;;;0.93;;
31728;SDS011;18309;43.658;1.312;2023-12-20T12:05:55;7.55;;;1.02;;
31728;SDS011;18309;43.658;1.312;2023-12-20T12:08:21;9.52;;;1.60;;
31728;SDS011;18309;43.658;1.312;2023-12-20T12:10:46;4.95;;;1.25;;
31728;SDS011;18309;43.658;1.312;2023-12-20T12:13:12;4.82;;;0.90;;
31728;SDS011;18309;43.658;1.312;2023-12-20T12:15:39;6.88;;;0.98;;
31728;SDS011;18309;43.658;1.312;2023-12-20T12:18:07;6.22;;;0.90;;
31728;SDS011;18309;43.658;1.312;2023-12-20T12:20:32;8.93;;;1.25;;
31728;SDS011;18309;43.658;1.312;2023-12-20T12:25:29;5.15;;;1.08;;
31728;SDS011;18309;43.658;1.312;2023-12-20T12:27:56;11.38;;;2.45;;
31728;SDS011;18309;43.658;1.312;2023-12-20T12:30:23;13.68;;;2.03;;
31728;SDS011;18309;43.658;1.312;2023-12-20T12:32:53;16.83;;;2.70;;
31728;SDS011;18309;43.658;1.312;2023-12-20T12:35:19;9.60;;;1.42;;
31728;SDS011;18309;43.658;1.312;2023-12-20T12:37:45;14.35;;;1.15;;
31728;SDS011;18309;43.658;1.312;2023-12-20T12:40:15;12.30;;;1.30;;
31728;SDS011;18309;43.658;1.312;2023-12-20T12:42:42;6.95;;;1.17;;
31728;SDS011;18309;43.658;1.312;2023-12-20T12:45:10;5.35;;;0.93;;
31728;SDS011;18309;43.658;1.312;2023-12-20T12:47:39;9.40;;;1.45;;
31728;SDS011;18309;43.658;1.312;2023-12-20T12:50:05;7.03;;;1.02;;
31728;SDS011;18309;43.658;1.312;2023-12-20T12:52:31;15.90;;;1.70;;
31728;SDS011;18309;43.658;1.312;2023-12-20T12:54:57;9.13;;;1.52;;
31728;SDS011;18309;43.658;1.312;2023-12-20T12:57:23;5.85;;;1.00;;
31728;SDS011;18309;43.658;1.312;2023-12-20T12:59:49;5.78;;;1.42;;
31728;SDS011;18309;43.658;1.312;2023-12-20T13:02:15;8.25;;;1.48;;
31728;SDS011;18309;43.658;1.312;2023-12-20T13:04:41;6.28;;;1.50;;
31728;SDS011;18309;43.658;1.312;2023-12-20T13:07:08;6.32;;;1.17;;
31728;SDS011;18309;43.658;1.312;2023-12-20T13:09:37;6.25;;;1.20;;
31728;SDS011;18309;43.658;1.312;2023-12-20T13:12:04;13.80;;;1.90;;
31728;SDS011;18309;43.658;1.312;2023-12-20T13:14:33;9.88;;;1.45;;
31728;SDS011;18309;43.658;1.312;2023-12-20T13:17:00;7.25;;;1.67;;
31728;SDS011;18309;43.658;1.312;2023-12-20T13:19:26;7.65;;;2.25;;
31728;SDS011;18309;43.658;1.312;2023-12-20T13:21:52;8.68;;;1.75;;
31728;SDS011;18309;43.658;1.312;2023-12-20T13:24:18;7.97;;;1.58;;
31728;SDS011;18309;43.658;1.312;2023-12-20T13:26:44;14.60;;;2.33;;
31728;SDS011;18309;43.658;1.312;2023-12-20T13:29:09;10.27;;;1.63;;
31728;SDS011;18309;43.658;1.312;2023-12-20T13:31:35;10.32;;;1.80;;
31728;SDS011;18309;43.658;1.312;2023-12-20T13:34:02;6.88;;;1.85;;
31728;SDS011;18309;43.658;1.312;2023-12-20T13:36:28;10.57;;;2.13;;
31728;SDS011;18309;43.658;1.312;2023-12-20T13:38:53;8.88;;;2.00;;
31728;SDS011;18309;43.658;1.312;2023-12-20T13:41:19;7.90;;;0.90;;
31728;SDS011;18309;43.658;1.312;2023-12-20T13:43:45;7.03;;;1.67;;
31728;SDS011;18309;43.658;1.312;2023-12-20T13:46:10;8.60;;;1.63;;
31728;SDS011;18309;43.658;1.312;2023-12-20T13:48:36;13.23;;;2.35;;
31728;SDS011;18309;43.658;1.312;2023-12-20T13:51:03;18.65;;;2.15;;
31728;SDS011;18309;43.658;1.312;2023-12-20T13:53:28;8.32;;;1.30;;
31728;SDS011;18309;43.658;1.312;2023-12-20T13:55:54;8.00;;;1.70;;
31728;SDS011;18309;43.658;1.312;2023-12-20T13:58:20;7.28;;;1.40;;
31728;SDS011;18309;43.658;1.312;2023-12-20T14:00:45;6.60;;;0.98;;
31728;SDS011;18309;43.658;1.312;2023-12-20T14:03:11;7.80;;;1.23;;
31728;SDS011;18309;43.658;1.312;2023-12-20T14:05:37;4.55;;;1.27;;
31728;SDS011;18309;43.658;1.312;2023-12-20T14:08:03;11.57;;;1.65;;
31728;SDS011;18309;43.658;1.312;2023-12-20T14:10:29;8.88;;;1.40;;
31728;SDS011;18309;43.658;1.312;2023-12-20T14:12:55;8.13;;;1.42;;
31728;SDS011;18309;43.658;1.312;2023-12-20T14:15:20;14.00;;;1.73;;
31728;SDS011;18309;43.658;1.312;2023-12-20T14:17:46;8.88;;;1.00;;
31728;SDS011;18309;43.658;1.312;2023-12-20T14:20:12;8.77;;;0.95;;
31728;SDS011;18309;43.658;1.312;2023-12-20T14:22:38;10.77;;;1.25;;
31728;SDS011;18309;43.658;1.312;2023-12-20T14:27:38;8.75;;;1.33;;
31728;SDS011;18309;43.658;1.312;2023-12-20T14:30:05;7.95;;;1.65;;
31728;SDS011;18309;43.658;1.312;2023-12-20T14:32:31;12.18;;;1.40;;
31728;SDS011;18309;43.658;1.312;2023-12-20T14:34:59;11.18;;;1.92;;
31728;SDS011;18309;43.658;1.312;2023-12-20T14:37:25;14.55;;;1.33;;
31728;SDS011;18309;43.658;1.312;2023-12-20T14:39:50;6.88;;;1.52;;
31728;SDS011;18309;43.658;1.312;2023-12-20T14:42:16;14.60;;;1.75;;
31728;SDS011;18309;43.658;1.312;2023-12-20T14:44:42;20.73;;;1.70;;
31728;SDS011;18309;43.658;1.312;2023-12-20T14:47:08;8.40;;;1.90;;
31728;SDS011;18309;43.658;1.312;2023-12-20T14:49:33;6.60;;;1.30;;